createdAt,value
2022-11-22T00:01:18.815Z,20.11
2022-11-22T00:04:21.631Z,20.09
2022-11-22T00:07:25.794Z,20.07
2022-11-22T00:10:28.642Z,20.02
2022-11-22T00:13:31.420Z,20.01
2022-11-22T00:16:35.171Z,19.97
2022-11-22T00:19:39.457Z,19.93
2022-11-22T00:22:45.015Z,19.91
2022-11-22T00:25:47.988Z,19.88
2022-11-22T00:28:50.916Z,19.87
2022-11-22T00:31:53.666Z,19.90
2022-11-22T00:34:56.471Z,19.85
2022-11-22T00:38:00.603Z,19.81
2022-11-22T00:41:03.362Z,19.75
2022-11-22T00:44:06.230Z,19.76
2022-11-22T00:47:09.132Z,19.72
2022-11-22T00:50:12.063Z,19.73
2022-11-22T00:53:16.204Z,19.75
2022-11-22T00:56:18.907Z,19.74
2022-11-22T00:59:21.616Z,19.74
2022-11-22T01:02:24.423Z,19.74
2022-11-22T01:05:27.217Z,19.70
2022-11-22T01:08:31.366Z,19.71
2022-11-22T01:11:34.169Z,19.70
2022-11-22T01:14:36.940Z,19.69
2022-11-22T01:17:39.640Z,19.66
2022-11-22T01:20:42.626Z,19.68
2022-11-22T01:23:46.722Z,19.69
2022-11-22T01:26:49.441Z,19.65
2022-11-22T01:29:52.249Z,19.63
2022-11-22T01:32:55.075Z,19.62
2022-11-22T01:35:58.347Z,19.63
2022-11-22T01:39:02.502Z,19.61
2022-11-22T01:42:05.490Z,19.59
2022-11-22T01:45:23.130Z,19.57
2022-11-22T01:48:40.730Z,19.59
2022-11-22T01:51:45.270Z,19.71
2022-11-22T01:54:52.051Z,19.59
2022-11-22T01:57:54.935Z,19.56
2022-11-22T02:00:57.969Z,19.56
2022-11-22T02:04:01.871Z,19.59
2022-11-22T02:07:08.207Z,19.61
2022-11-22T02:10:12.788Z,19.74
2022-11-22T02:13:16.052Z,19.79
2022-11-22T02:16:18.867Z,19.86
2022-11-22T02:19:32.762Z,19.93
2022-11-22T02:22:41.325Z,20.19
2022-11-22T02:25:53.177Z,20.14
2022-11-22T02:28:57.769Z,20.12
2022-11-22T02:32:00.527Z,20.12
2022-11-22T02:35:03.312Z,20.15
2022-11-22T02:38:09.574Z,20.20
2022-11-22T02:41:13.885Z,20.20
2022-11-22T02:44:17.596Z,20.23
2022-11-22T02:47:20.366Z,20.26
2022-11-22T02:50:23.245Z,20.28
2022-11-22T02:53:26.097Z,20.33
2022-11-22T02:56:30.193Z,20.34
2022-11-22T02:59:32.983Z,20.35
2022-11-22T03:02:35.731Z,20.40
2022-11-22T03:05:38.533Z,20.38
2022-11-22T03:08:41.332Z,20.40
2022-11-22T03:11:45.457Z,20.42
2022-11-22T03:14:48.239Z,20.46
2022-11-22T03:17:51.194Z,20.45
2022-11-22T03:20:54.035Z,20.45
2022-11-22T03:23:56.829Z,20.46
2022-11-22T03:27:00.982Z,20.47
2022-11-22T03:30:03.854Z,20.48
2022-11-22T03:33:06.679Z,20.50
2022-11-22T03:36:09.476Z,20.53
2022-11-22T03:39:12.268Z,20.58
2022-11-22T03:42:21.300Z,20.58
2022-11-22T03:45:24.800Z,20.61
2022-11-22T03:48:27.561Z,20.64
2022-11-22T03:51:30.382Z,20.61
2022-11-22T03:54:33.254Z,20.64
2022-11-22T03:57:37.435Z,20.69
2022-11-22T04:00:40.161Z,20.66
2022-11-22T04:03:42.958Z,20.68
2022-11-22T04:06:45.758Z,20.74
2022-11-22T04:09:48.538Z,20.70
2022-11-22T04:12:52.681Z,20.74
2022-11-22T04:15:55.875Z,20.78
2022-11-22T04:18:58.647Z,20.75
2022-11-22T04:22:00.422Z,20.79
2022-11-22T04:25:15.116Z,20.82
2022-11-22T04:28:20.037Z,20.82
2022-11-22T04:31:40.440Z,20.82
2022-11-22T04:34:43.227Z,20.85
2022-11-22T04:37:51.331Z,20.84
2022-11-22T04:40:54.094Z,20.84
2022-11-22T04:44:24.182Z,20.82
2022-11-22T04:47:48.994Z,20.75
2022-11-22T04:51:10.302Z,20.74
2022-11-22T04:54:13.059Z,20.70
2022-11-22T04:57:15.824Z,20.68
2022-11-22T05:00:20.562Z,20.64
2022-11-22T05:03:23.327Z,20.60
2022-11-22T05:06:26.148Z,20.56
2022-11-22T05:09:29.038Z,20.58
2022-11-22T05:12:32.025Z,20.53
2022-11-22T05:15:36.162Z,20.51
2022-11-22T05:18:38.996Z,20.47
2022-11-22T05:21:41.810Z,20.44
2022-11-22T05:24:43.567Z,20.44
2022-11-22T05:27:46.356Z,20.40
2022-11-22T05:30:50.522Z,20.39
2022-11-22T05:33:53.799Z,20.34
2022-11-22T05:36:56.553Z,20.31
2022-11-22T05:39:59.346Z,20.32
2022-11-22T05:43:02.134Z,20.27
2022-11-22T05:46:10.688Z,20.25
2022-11-22T05:49:13.557Z,20.24
2022-11-22T05:52:16.261Z,20.23
2022-11-22T05:55:19.079Z,20.22
2022-11-22T05:58:21.915Z,20.20
2022-11-22T06:01:26.063Z,20.16
2022-11-22T06:04:28.811Z,20.20
2022-11-22T06:07:31.630Z,20.18
2022-11-22T06:10:37.287Z,20.18
2022-11-22T06:13:40.810Z,20.21
2022-11-22T06:16:45.023Z,20.19
2022-11-22T06:19:47.760Z,20.17
2022-11-22T06:22:50.522Z,20.16
2022-11-22T06:25:57.614Z,20.12
2022-11-22T06:29:00.432Z,20.14
2022-11-22T06:32:04.582Z,20.14
2022-11-22T06:35:07.793Z,20.15
2022-11-22T06:38:10.501Z,20.12
2022-11-22T06:41:15.055Z,20.11
2022-11-22T06:44:17.847Z,20.07
2022-11-22T06:47:21.982Z,20.09
2022-11-22T06:50:24.749Z,20.07
2022-11-22T06:53:46.312Z,20.04
2022-11-22T06:56:49.876Z,20.07
2022-11-22T06:59:52.670Z,20.05
2022-11-22T07:02:56.801Z,20.04
2022-11-22T07:05:59.596Z,20.03
2022-11-22T07:09:02.786Z,20.01
2022-11-22T07:12:05.813Z,20.02
2022-11-22T10:15:54.190Z,18.26
2022-11-22T10:18:58.891Z,18.36
2022-11-22T10:22:01.798Z,18.46
2022-11-22T10:25:05.304Z,18.49
2022-11-22T10:28:13.518Z,18.52
2022-11-22T10:31:19.017Z,18.65
2022-11-22T10:34:27.851Z,18.74
2022-11-22T10:37:36.370Z,18.80
2022-11-22T10:40:44.284Z,18.88
2022-11-22T10:43:50.266Z,18.95
2022-11-22T10:47:00.156Z,18.95
2022-11-22T10:50:06.394Z,19.02
2022-11-22T10:53:15.288Z,19.03
2022-11-22T10:56:21.096Z,19.10
2022-11-22T10:59:48.356Z,19.17
2022-11-22T11:02:59.775Z,19.61
2022-11-22T11:06:22.678Z,19.36
2022-11-22T11:10:10.226Z,19.45
2022-11-22T11:12:57.933Z,19.40
2022-11-22T11:16:02.743Z,19.43
2022-11-22T11:19:14.030Z,19.43
2022-11-22T11:22:36.122Z,19.43
2022-11-22T11:25:43.468Z,19.40
2022-11-22T11:28:46.718Z,19.39
2022-11-22T11:31:50.139Z,19.36
2022-11-22T11:34:56.488Z,19.33
2022-11-22T11:37:59.263Z,19.31
2022-11-22T11:41:18.289Z,19.29
2022-11-22T11:44:28.121Z,19.23
2022-11-22T11:47:35.120Z,19.30
2022-11-22T11:50:39.404Z,19.41
2022-11-22T11:53:43.550Z,19.39
2022-11-22T11:56:50.218Z,19.38
2022-11-22T11:59:54.139Z,19.39
2022-11-22T12:02:58.714Z,19.37
2022-11-22T12:06:14.126Z,19.35
2022-11-22T12:09:27.842Z,19.35
2022-11-22T12:12:34.047Z,19.36
2022-11-22T12:15:41.301Z,19.34
2022-11-22T12:18:50.718Z,19.30
2022-11-22T12:22:02.079Z,19.31
2022-11-22T12:25:32.909Z,19.30
2022-11-22T12:28:36.681Z,19.27
2022-11-22T12:31:40.796Z,19.30
2022-11-22T12:34:49.461Z,19.28
2022-11-22T12:37:55.566Z,19.29
2022-11-22T12:53:16.218Z,18.80
2022-11-22T12:56:27.207Z,18.74
2022-11-22T12:59:35.954Z,18.69
2022-11-22T13:02:41.825Z,18.66
2022-11-22T13:05:47.015Z,18.59
2022-11-22T13:09:02.001Z,18.56
2022-11-22T13:12:09.385Z,18.51
2022-11-22T13:15:14.142Z,18.48
2022-11-22T13:18:17.613Z,18.46
2022-11-22T13:21:24.138Z,18.42
2022-11-22T13:24:35.931Z,18.41
2022-11-22T13:27:44.332Z,18.36
2022-11-22T13:31:01.874Z,18.35
2022-11-22T13:34:24.543Z,18.32
2022-11-22T13:37:27.730Z,18.42
2022-11-22T13:40:34.700Z,18.46
2022-11-22T13:43:51.594Z,18.48
2022-11-22T13:46:58.425Z,18.57
2022-11-22T13:50:01.095Z,18.62
2022-11-22T13:53:18.415Z,18.65
2022-11-22T13:56:54.378Z,18.70
2022-11-22T14:00:15.536Z,18.73
2022-11-22T14:03:23.681Z,18.74
2022-11-22T14:06:30.543Z,18.78
2022-11-22T14:09:39.245Z,18.80
2022-11-22T14:12:53.501Z,18.82
2022-11-22T14:16:01.452Z,18.85
2022-11-22T14:19:12.551Z,18.90
2022-11-22T14:22:20.368Z,19.09
2022-11-22T14:25:37.932Z,19.09
2022-11-22T14:28:57.599Z,19.17
2022-11-22T14:32:03.004Z,19.38
2022-11-22T14:35:27.792Z,19.40
2022-11-22T14:38:33.083Z,19.60
2022-11-22T14:41:44.905Z,19.65
2022-11-22T14:44:47.997Z,19.55
2022-11-22T14:47:57.744Z,19.60
2022-11-22T14:51:06.628Z,19.58
2022-11-22T14:54:17.730Z,19.44
2022-11-22T14:57:22.035Z,19.54
2022-11-22T15:00:25.888Z,19.54
2022-11-22T15:03:42.940Z,19.53
2022-11-22T15:09:11.059Z,19.50
2022-11-22T15:10:31.268Z,19.48
2022-11-22T15:13:50.680Z,19.48
2022-11-22T15:58:21.805Z,19.36
2022-11-22T16:01:24.539Z,19.32
2022-11-22T16:04:29.506Z,19.29
2022-11-22T16:07:35.735Z,19.27
2022-11-22T16:10:42.405Z,19.29
2022-11-22T16:13:46.512Z,19.25
2022-11-22T16:16:49.182Z,19.26
2022-11-22T16:19:51.881Z,19.25
2022-11-22T16:23:13.060Z,19.28
2022-11-22T16:26:20.566Z,19.38
2022-11-22T16:29:32.149Z,19.45
2022-11-22T16:32:35.338Z,19.55
2022-11-22T16:35:38.044Z,19.64
2022-11-22T16:38:41.099Z,19.80
2022-11-22T16:41:43.961Z,19.82
2022-11-22T16:44:48.001Z,19.81
2022-11-22T16:48:03.720Z,19.85
2022-11-22T16:51:14.636Z,19.85
2022-11-22T16:54:18.544Z,19.89
2022-11-22T16:57:21.208Z,19.98
2022-11-22T17:00:25.377Z,19.99
2022-11-22T17:03:31.887Z,20.03
2022-11-22T17:06:34.644Z,20.06
2022-11-22T17:09:37.450Z,20.07
2022-11-22T17:12:40.419Z,20.06
2022-11-22T17:15:44.628Z,20.10
2022-11-22T17:18:48.224Z,20.09
2022-11-22T17:21:50.956Z,20.11
2022-11-22T17:24:53.643Z,20.16
2022-11-22T17:27:56.356Z,20.13
2022-11-22T17:31:01.749Z,20.17
2022-11-22T17:34:04.584Z,20.19
2022-11-22T17:37:11.556Z,20.21
2022-11-22T17:40:15.339Z,20.25
2022-11-22T17:43:18.103Z,20.27
2022-11-22T17:46:22.124Z,20.27
2022-11-22T17:49:24.799Z,20.30
2022-11-22T17:52:27.534Z,20.32
2022-11-22T17:55:42.653Z,20.34
2022-11-22T17:58:53.110Z,20.37
2022-11-22T18:01:57.152Z,20.46
2022-11-22T18:05:01.231Z,20.39
2022-11-22T18:08:03.893Z,20.43
2022-11-22T18:11:06.768Z,20.43
2022-11-22T18:14:11.061Z,20.43
2022-11-22T18:17:15.405Z,20.46
2022-11-22T18:20:18.186Z,20.45
2022-11-22T18:23:21.597Z,20.45
2022-11-22T18:26:38.821Z,20.50
2022-11-22T18:29:43.362Z,20.54
2022-11-22T18:32:47.469Z,20.53
2022-11-22T18:35:58.077Z,20.52
2022-11-22T18:39:00.815Z,20.62
2022-11-22T18:42:03.798Z,20.55
2022-11-22T18:45:07.351Z,20.55
2022-11-22T18:48:11.898Z,20.61
2022-11-22T18:51:14.564Z,20.50
2022-11-22T18:54:18.277Z,20.46
2022-11-22T18:57:20.991Z,20.49
2022-11-22T19:00:23.979Z,20.47
2022-11-22T19:03:28.028Z,20.45
2022-11-22T19:06:31.258Z,20.44
2022-11-22T19:09:34.234Z,20.41
2022-11-22T19:12:36.969Z,20.42
2022-11-22T19:15:39.823Z,20.35
2022-11-22T19:18:43.943Z,20.32
2022-11-22T19:21:46.670Z,20.30
2022-11-22T19:24:49.418Z,20.27
2022-11-22T19:27:52.269Z,20.26
2022-11-22T19:30:55.147Z,20.24
2022-11-22T19:33:59.763Z,20.20
2022-11-22T19:37:02.428Z,20.13
2022-11-22T19:40:09.249Z,20.12
2022-11-22T19:43:16.202Z,20.10
2022-11-22T19:46:20.378Z,20.05
2022-11-22T19:49:24.505Z,20.02
2022-11-22T19:52:27.265Z,20.01
2022-11-22T19:55:30.046Z,19.97
2022-11-22T19:58:35.454Z,19.94
2022-11-22T20:01:39.696Z,19.90
2022-11-22T20:04:43.938Z,19.89
2022-11-22T20:07:46.707Z,19.95
2022-11-22T20:10:49.524Z,19.89
2022-11-22T20:13:52.659Z,19.88
2022-11-22T20:16:55.390Z,19.82
2022-11-22T20:19:59.570Z,19.85
2022-11-22T20:23:02.270Z,19.80
2022-11-22T20:26:06.230Z,19.84
2022-11-22T20:29:11.756Z,19.78
2022-11-22T20:32:14.562Z,19.78
2022-11-22T20:35:18.669Z,19.80
2022-11-22T20:38:21.418Z,19.78
2022-11-22T20:41:24.865Z,19.75
2022-11-22T20:44:27.660Z,19.74
2022-11-22T20:47:31.585Z,19.71
2022-11-22T20:50:35.598Z,19.71
2022-11-22T20:53:38.823Z,19.78
2022-11-22T20:56:41.510Z,19.69
2022-11-22T20:59:44.322Z,19.70
2022-11-22T21:02:47.002Z,19.68
2022-11-22T21:05:53.152Z,19.66
2022-11-22T21:08:55.889Z,19.63
2022-11-22T21:11:58.661Z,19.61
2022-11-22T21:15:01.327Z,19.47
2022-11-22T21:18:24.294Z,19.61
2022-11-22T21:21:29.595Z,19.75
2022-11-22T21:24:32.553Z,19.81
2022-11-22T21:27:35.423Z,19.89
2022-11-22T21:30:38.084Z,19.98
2022-11-22T21:33:40.884Z,20.07
2022-11-22T21:36:45.270Z,20.11
2022-11-22T21:39:47.965Z,20.17
2022-11-22T21:42:50.691Z,20.23
2022-11-22T21:45:53.749Z,20.25
2022-11-22T21:48:56.821Z,20.31
2022-11-22T21:52:00.902Z,20.32
2022-11-22T21:55:03.580Z,20.36
2022-11-22T21:58:06.838Z,20.38
2022-11-22T22:01:13.997Z,20.42
2022-11-22T22:04:17.497Z,20.42
2022-11-22T22:07:44.819Z,20.44
2022-11-22T22:10:44.247Z,20.47
2022-11-22T22:13:46.892Z,20.43
2022-11-22T22:16:49.560Z,20.46
2022-11-22T22:19:52.469Z,20.48
2022-11-22T22:22:57.666Z,20.48
2022-11-22T22:26:01.203Z,20.53
2022-11-22T22:29:03.941Z,20.53
2022-11-22T22:32:10.561Z,20.54
2022-11-22T22:35:13.589Z,20.60
2022-11-22T22:38:17.596Z,20.57
2022-11-22T22:41:20.530Z,20.66
2022-11-22T22:44:23.299Z,20.79
2022-11-22T22:47:25.944Z,20.65
2022-11-22T22:50:28.581Z,20.63
2022-11-22T22:53:32.609Z,20.67
2022-11-22T22:56:35.328Z,20.67
2022-11-22T22:59:38.014Z,20.68
2022-11-22T23:02:40.728Z,20.75
2022-11-22T23:05:43.404Z,20.69
2022-11-22T23:08:48.104Z,20.69
2022-11-22T23:12:19.762Z,20.72
2022-11-22T23:15:43.858Z,20.71
2022-11-22T23:18:45.691Z,20.75
2022-11-22T23:21:48.516Z,20.83
2022-11-22T23:24:52.578Z,20.77
2022-11-22T23:27:55.250Z,20.79
2022-11-22T23:30:58.320Z,20.92
2022-11-22T23:34:01.206Z,20.78
2022-11-22T23:37:03.902Z,20.82
2022-11-22T23:40:08.818Z,20.84
2022-11-22T23:43:11.525Z,20.85
2022-11-22T23:46:16.274Z,20.79
2022-11-22T23:49:19.013Z,20.76
2022-11-22T23:52:21.766Z,20.76
2022-11-22T23:55:25.886Z,20.74
2022-11-22T23:58:30.642Z,20.65
